createdAt,value
2023-05-13T00:00:49.904Z,95876
2023-05-13T00:01:50.231Z,95876
2023-05-13T00:02:49.925Z,95878
2023-05-13T00:03:50.041Z,95875
2023-05-13T00:04:49.837Z,95877
2023-05-13T00:05:49.900Z,95874
2023-05-13T00:06:49.900Z,95876
2023-05-13T00:07:49.873Z,95876
2023-05-13T00:08:49.903Z,95876
2023-05-13T00:09:49.870Z,95871
2023-05-13T00:10:49.922Z,95874
2023-05-13T00:12:49.911Z,95874
2023-05-13T00:13:49.910Z,95871
2023-05-13T00:14:49.874Z,95871
2023-05-13T00:15:49.988Z,95866
2023-05-13T00:16:49.992Z,95873
2023-05-13T00:17:49.909Z,95873
2023-05-13T00:19:49.896Z,95869
2023-05-13T00:22:49.891Z,95877
2023-05-13T00:23:49.938Z,95874
2023-05-13T00:24:49.939Z,95875
2023-05-13T00:25:49.944Z,95874
2023-05-13T00:26:49.948Z,95876
2023-05-13T00:28:49.968Z,95872
2023-05-13T00:29:49.966Z,95874
2023-05-13T00:32:50.006Z,95873
2023-05-13T00:33:49.975Z,95874
2023-05-13T00:34:49.937Z,95870
2023-05-13T00:35:49.972Z,95873
2023-05-13T00:36:49.980Z,95874
2023-05-13T00:37:49.970Z,95871
2023-05-13T00:38:49.984Z,95867
2023-05-13T00:39:49.966Z,95872
2023-05-13T00:40:49.943Z,95869
2023-05-13T00:42:49.997Z,95872
2023-05-13T00:45:50.018Z,95874
2023-05-13T00:46:49.932Z,95873
2023-05-13T00:47:50.031Z,95871
2023-05-13T00:48:49.972Z,95874
2023-05-13T00:49:50.003Z,95871
2023-05-13T00:50:50.030Z,95871
2023-05-13T00:51:49.999Z,95873
2023-05-13T00:54:50.022Z,95871
2023-05-13T00:55:49.970Z,95871
2023-05-13T00:57:50.021Z,95870
2023-05-13T00:58:50.004Z,95868
2023-05-13T00:59:49.982Z,95868
2023-05-13T01:00:50.052Z,95866
2023-05-13T01:01:49.995Z,95867
2023-05-13T01:03:50.054Z,95870
2023-05-13T01:04:49.979Z,95869
2023-05-13T01:05:50.051Z,95872
2023-05-13T01:06:50.029Z,95872
2023-05-13T01:07:50.055Z,95870
2023-05-13T01:08:50.042Z,95872
2023-05-13T01:09:50.035Z,95872
2023-05-13T01:10:50.122Z,95873
2023-05-13T01:11:50.079Z,95871
2023-05-13T01:12:50.034Z,95867
2023-05-13T01:13:50.069Z,95873
2023-05-13T01:14:50.022Z,95873
2023-05-13T01:15:50.091Z,95874
2023-05-13T01:16:50.191Z,95875
2023-05-13T01:17:50.143Z,95874
2023-05-13T01:18:50.112Z,95875
2023-05-13T01:19:50.073Z,95875
2023-05-13T01:20:50.075Z,95873
2023-05-13T01:21:50.046Z,95874
2023-05-13T01:22:50.018Z,95874
2023-05-13T01:23:50.107Z,95875
2023-05-13T01:24:50.087Z,95871
2023-05-13T01:25:50.098Z,95875
2023-05-13T01:26:50.095Z,95871
2023-05-13T01:27:50.028Z,95870
2023-05-13T01:28:50.117Z,95869
2023-05-13T01:29:50.079Z,95870
2023-05-13T01:30:50.125Z,95868
2023-05-13T01:31:50.078Z,95868
2023-05-13T01:32:50.124Z,95866
2023-05-13T01:33:50.133Z,95870
2023-05-13T01:34:50.121Z,95870
2023-05-13T01:35:50.088Z,95870
2023-05-13T01:36:50.127Z,95874
2023-05-13T01:39:50.103Z,95877
2023-05-13T01:40:50.069Z,95874
2023-05-13T01:41:50.096Z,95876
2023-05-13T01:42:50.119Z,95882
2023-05-13T01:43:50.130Z,95877
2023-05-13T01:44:50.160Z,95878
2023-05-13T01:45:50.079Z,95878
2023-05-13T01:46:50.292Z,95878
2023-05-13T01:48:50.082Z,95877
2023-05-13T01:50:50.118Z,95877
2023-05-13T01:51:50.138Z,95879
2023-05-13T01:53:50.106Z,95877
2023-05-13T01:54:50.142Z,95880
2023-05-13T01:55:50.102Z,95884
2023-05-13T01:56:50.135Z,95884
2023-05-13T01:57:50.154Z,95885
2023-05-13T01:58:50.130Z,95883
2023-05-13T01:59:50.163Z,95884
2023-05-13T02:01:50.194Z,95883
2023-05-13T02:03:50.268Z,95886
2023-05-13T02:04:50.186Z,95886
2023-05-13T02:05:50.196Z,95887
2023-05-13T02:06:50.160Z,95887
2023-05-13T02:07:50.191Z,95890
2023-05-13T02:08:50.198Z,95889
2023-05-13T02:10:50.169Z,95892
2023-05-13T02:11:50.168Z,95895
2023-05-13T02:12:50.172Z,95893
2023-05-13T02:13:50.185Z,95894
2023-05-13T02:15:50.222Z,95897
2023-05-13T02:16:50.387Z,95894
2023-05-13T02:18:50.317Z,95896
2023-05-13T02:19:50.156Z,95894
2023-05-13T02:20:50.226Z,95895
2023-05-13T02:21:50.211Z,95891
2023-05-13T02:22:50.211Z,95894
2023-05-13T02:23:50.214Z,95892
2023-05-13T02:24:50.189Z,95894
2023-05-13T02:25:50.233Z,95894
2023-05-13T02:26:50.222Z,95891
2023-05-13T02:27:50.215Z,95893
2023-05-13T02:28:50.256Z,95890
2023-05-13T02:29:50.236Z,95895
2023-05-13T02:30:50.220Z,95895
2023-05-13T02:31:50.295Z,95894
2023-05-13T02:32:50.258Z,95892
2023-05-13T02:33:50.235Z,95893
2023-05-13T02:34:50.239Z,95890
2023-05-13T02:35:50.268Z,95891
2023-05-13T02:36:50.238Z,95896
2023-05-13T02:38:50.267Z,95893
2023-05-13T02:39:50.288Z,95894
2023-05-13T02:40:50.255Z,95894
2023-05-13T02:41:50.214Z,95891
2023-05-13T02:42:50.265Z,95896
2023-05-13T02:43:50.274Z,95894
2023-05-13T02:46:50.295Z,95894
2023-05-13T02:47:50.328Z,95894
2023-05-13T02:48:50.296Z,95898
2023-05-13T02:49:50.304Z,95897
2023-05-13T02:50:50.244Z,95897
2023-05-13T02:51:50.305Z,95901
2023-05-13T02:52:50.279Z,95901
2023-05-13T02:53:50.274Z,95896
2023-05-13T02:54:50.338Z,95900
2023-05-13T02:55:50.315Z,95899
2023-05-13T02:56:50.325Z,95900
2023-05-13T02:57:50.340Z,95900
2023-05-13T02:58:50.257Z,95900
2023-05-13T02:59:50.310Z,95901
2023-05-13T03:01:50.400Z,95899
2023-05-13T03:02:50.405Z,95898
2023-05-13T03:03:50.267Z,95900
2023-05-13T03:05:50.315Z,95898
2023-05-13T03:07:50.374Z,95898
2023-05-13T03:08:50.329Z,95900
2023-05-13T03:10:50.353Z,95902
2023-05-13T03:11:50.318Z,95902
2023-05-13T03:12:50.288Z,95899
2023-05-13T03:13:50.392Z,95902
2023-05-13T03:15:50.388Z,95902
2023-05-13T03:16:50.282Z,95902
2023-05-13T03:17:50.428Z,95904
2023-05-13T03:18:50.412Z,95909
2023-05-13T03:20:50.342Z,95907
2023-05-13T03:21:50.366Z,95908
2023-05-13T03:22:50.393Z,95909
2023-05-13T03:24:50.326Z,95911
2023-05-13T03:25:50.377Z,95913
2023-05-13T03:26:50.363Z,95913
2023-05-13T03:27:50.377Z,95911
2023-05-13T03:28:50.374Z,95911
2023-05-13T03:29:50.364Z,95912
2023-05-13T03:30:50.411Z,95911
2023-05-13T03:32:50.384Z,95910
2023-05-13T03:33:50.416Z,95913
2023-05-13T03:35:50.389Z,95915
2023-05-13T03:36:50.394Z,95915
2023-05-13T03:37:50.370Z,95916
2023-05-13T03:38:50.418Z,95919
2023-05-13T03:40:50.409Z,95919
2023-05-13T03:41:50.422Z,95920
2023-05-13T03:43:50.440Z,95919
2023-05-13T03:46:50.490Z,95918
2023-05-13T03:47:50.521Z,95918
2023-05-13T03:50:50.453Z,95920
2023-05-13T03:51:50.453Z,95922
2023-05-13T03:52:50.468Z,95920
2023-05-13T03:53:50.428Z,95922
2023-05-13T03:55:50.451Z,95921
2023-05-13T03:58:50.490Z,95928
2023-05-13T03:59:50.496Z,95929
2023-05-13T04:00:50.452Z,95930
2023-05-13T04:01:50.498Z,95928
2023-05-13T04:02:50.587Z,95930
2023-05-13T04:03:50.450Z,95933
2023-05-13T04:06:50.472Z,95935
2023-05-13T04:07:50.508Z,95932
2023-05-13T04:08:50.506Z,95935
2023-05-13T04:09:50.488Z,95938
2023-05-13T04:10:50.480Z,95936
2023-05-13T04:11:50.459Z,95936
2023-05-13T04:12:50.523Z,95940
2023-05-13T04:15:50.502Z,95940
2023-05-13T04:16:50.499Z,95940
2023-05-13T04:17:50.499Z,95943
2023-05-13T04:19:50.515Z,95943
2023-05-13T04:20:50.551Z,95941
2023-05-13T04:21:50.504Z,95944
2023-05-13T04:22:50.559Z,95943
2023-05-13T04:23:50.502Z,95943
2023-05-13T04:24:50.522Z,95942
2023-05-13T04:25:50.496Z,95942
2023-05-13T04:26:50.565Z,95947
2023-05-13T04:28:50.522Z,95950
2023-05-13T04:29:50.528Z,95948
2023-05-13T04:30:50.560Z,95948
2023-05-13T04:31:50.588Z,95948
2023-05-13T04:33:50.559Z,95947
2023-05-13T04:34:50.580Z,95950
2023-05-13T04:35:50.531Z,95947
2023-05-13T04:36:50.592Z,95949
2023-05-13T04:38:50.570Z,95953
2023-05-13T04:40:50.568Z,95952
2023-05-13T04:41:50.588Z,95952
2023-05-13T04:42:50.546Z,95952
2023-05-13T04:43:50.575Z,95954
2023-05-13T04:44:50.569Z,95953
2023-05-13T04:45:50.648Z,95953
2023-05-13T04:46:50.698Z,95957
2023-05-13T04:47:50.640Z,95956
2023-05-13T04:49:50.583Z,95958
2023-05-13T04:50:50.587Z,95959
2023-05-13T04:52:50.621Z,95962
2023-05-13T04:53:50.601Z,95959
2023-05-13T04:56:50.619Z,95966
2023-05-13T04:57:50.616Z,95966
2023-05-13T04:58:50.594Z,95967
2023-05-13T04:59:50.619Z,95967
2023-05-13T05:04:50.657Z,95964
2023-05-13T05:05:50.655Z,95966
2023-05-13T05:06:50.643Z,95968
2023-05-13T05:07:50.664Z,95965
2023-05-13T05:09:50.629Z,95966
2023-05-13T05:10:50.657Z,95968
2023-05-13T05:11:50.669Z,95970
2023-05-13T05:12:50.683Z,95971
2023-05-13T05:13:50.652Z,95967
2023-05-13T05:14:50.607Z,95971
2023-05-13T05:17:50.751Z,95972
2023-05-13T05:18:50.737Z,95973
2023-05-13T05:19:50.658Z,95971
2023-05-13T05:20:50.664Z,95971
2023-05-13T05:21:50.641Z,95971
2023-05-13T05:22:50.674Z,95974
2023-05-13T05:23:50.643Z,95977
2023-05-13T05:24:50.653Z,95978
2023-05-13T05:25:57.806Z,95983
2023-05-13T05:26:50.715Z,95982
2023-05-13T05:27:50.736Z,95985
2023-05-13T05:28:50.721Z,95989
2023-05-13T05:29:50.681Z,95989
2023-05-13T05:30:50.682Z,95988
2023-05-13T05:31:50.743Z,95985
2023-05-13T05:32:50.767Z,95983
2023-05-13T05:33:50.728Z,95986
2023-05-13T05:34:50.654Z,95986
2023-05-13T05:35:50.693Z,95990
2023-05-13T05:36:50.712Z,95990
2023-05-13T05:37:50.723Z,95990
2023-05-13T05:38:50.732Z,95997
2023-05-13T05:39:50.701Z,95997
2023-05-13T05:40:50.728Z,95994
2023-05-13T05:41:50.705Z,95994
2023-05-13T05:42:50.700Z,95996
2023-05-13T05:43:50.736Z,95996
2023-05-13T05:44:50.762Z,95997
2023-05-13T05:45:50.855Z,95994
2023-05-13T05:46:50.750Z,95993
2023-05-13T05:47:50.711Z,95993
2023-05-13T05:48:50.767Z,95998
2023-05-13T05:49:50.773Z,95995
2023-05-13T05:50:50.724Z,95996
2023-05-13T05:51:50.754Z,95995
2023-05-13T05:52:50.773Z,95998
2023-05-13T05:53:50.739Z,95996
2023-05-13T05:54:50.770Z,95998
2023-05-13T05:55:52.947Z,95997
2023-05-13T05:56:50.749Z,95999
2023-05-13T05:57:50.776Z,96002
2023-05-13T05:58:50.823Z,96002
2023-05-13T05:59:50.785Z,95999
2023-05-13T06:00:50.722Z,95999
2023-05-13T06:02:50.858Z,95997
2023-05-13T06:04:50.796Z,95999
2023-05-13T06:07:50.778Z,95994
2023-05-13T06:08:50.777Z,95998
2023-05-13T06:09:50.784Z,95998
2023-05-13T06:11:50.812Z,96000
2023-05-13T06:12:50.828Z,95999
2023-05-13T06:13:50.790Z,96000
2023-05-13T06:15:50.857Z,95998
2023-05-13T06:16:50.785Z,96000
2023-05-13T06:17:50.854Z,96000
2023-05-13T06:18:50.837Z,95997
2023-05-13T06:19:50.851Z,95999
2023-05-13T06:20:50.833Z,96002
2023-05-13T06:22:50.848Z,95999
2023-05-13T06:23:50.857Z,96002
2023-05-13T06:24:50.841Z,96003
2023-05-13T06:25:50.845Z,96003
2023-05-13T06:26:50.806Z,96005
2023-05-13T06:27:50.829Z,96003
2023-05-13T06:28:50.848Z,96004
2023-05-13T06:30:50.910Z,96003
2023-05-13T06:31:50.930Z,96005
2023-05-13T06:33:01.045Z,96004
2023-05-13T06:33:50.867Z,96006
2023-05-13T06:34:50.836Z,96007
2023-05-13T06:35:50.900Z,96007
2023-05-13T06:36:50.886Z,96007
2023-05-13T06:37:50.882Z,96008
2023-05-13T06:38:50.847Z,96009
2023-05-13T06:39:50.833Z,96011
2023-05-13T06:40:50.891Z,96009
2023-05-13T06:41:50.864Z,96010
2023-05-13T06:42:50.864Z,96010
2023-05-13T06:43:50.878Z,96013
2023-05-13T06:45:50.835Z,96014
2023-05-13T06:47:50.925Z,96011
2023-05-13T06:48:50.896Z,96012
2023-05-13T06:49:50.888Z,96011
2023-05-13T06:50:50.899Z,96013
2023-05-13T06:51:50.886Z,96010
2023-05-13T06:52:50.852Z,96010
2023-05-13T06:53:50.923Z,96014
2023-05-13T06:54:50.930Z,96010
2023-05-13T06:55:50.896Z,96010
2023-05-13T06:56:50.901Z,96013
2023-05-13T06:57:50.951Z,96015
2023-05-13T06:58:50.927Z,96014
2023-05-13T07:00:50.942Z,96014
2023-05-13T07:01:50.926Z,96015
2023-05-13T07:02:50.999Z,96013
2023-05-13T07:03:50.936Z,96012
2023-05-13T07:04:50.904Z,96013
2023-05-13T07:05:50.960Z,96009
2023-05-13T07:06:50.960Z,96010
2023-05-13T07:07:50.932Z,96007
2023-05-13T07:08:50.890Z,96010
2023-05-13T07:09:50.915Z,96010
2023-05-13T07:10:51.204Z,96011
2023-05-13T07:11:51.005Z,96013
2023-05-13T07:13:50.934Z,96014
2023-05-13T07:14:50.950Z,96015
2023-05-13T07:16:51.050Z,96018
2023-05-13T07:17:51.083Z,96018
2023-05-13T07:18:51.032Z,96017
2023-05-13T07:19:50.959Z,96019
2023-05-13T07:20:50.973Z,96018
2023-05-13T07:22:51.011Z,96017
2023-05-13T07:23:50.972Z,96019
2023-05-13T07:24:50.996Z,96019
2023-05-13T07:26:50.935Z,96020
2023-05-13T07:27:50.996Z,96023
2023-05-13T07:29:50.981Z,96023
2023-05-13T07:30:51.070Z,96022
2023-05-13T07:31:51.000Z,96020
2023-05-13T07:32:53.697Z,96024
2023-05-13T07:33:50.997Z,96024
2023-05-13T07:34:51.011Z,96025
2023-05-13T07:35:51.024Z,96026
2023-05-13T07:36:51.024Z,96024
2023-05-13T07:37:50.978Z,96024
2023-05-13T07:38:51.025Z,96023
2023-05-13T07:39:51.025Z,96024
2023-05-13T07:40:50.981Z,96024
2023-05-13T07:41:51.050Z,96024
2023-05-13T07:42:50.990Z,96022
2023-05-13T07:43:51.050Z,96020
2023-05-13T07:44:51.049Z,96023
2023-05-13T07:46:51.072Z,96020
2023-05-13T07:47:51.053Z,96024
2023-05-13T07:48:51.047Z,96021
2023-05-13T07:49:51.117Z,96026
2023-05-13T07:50:51.031Z,96026
2023-05-13T07:51:51.071Z,96023
2023-05-13T07:52:51.071Z,96021
2023-05-13T07:53:51.074Z,96024
2023-05-13T07:54:51.055Z,96025
2023-05-13T07:55:51.065Z,96023
2023-05-13T07:56:51.044Z,96027
2023-05-13T07:57:51.057Z,96028
2023-05-13T07:58:51.088Z,96026
2023-05-13T07:59:51.065Z,96026
2023-05-13T08:00:51.093Z,96025
2023-05-13T08:01:51.113Z,96029
2023-05-13T08:02:51.188Z,96031
2023-05-13T08:03:51.374Z,96031
2023-05-13T08:04:51.179Z,96030
2023-05-13T08:05:51.118Z,96031
2023-05-13T08:06:51.122Z,96029
2023-05-13T08:07:51.049Z,96032
2023-05-13T08:08:51.065Z,96032
2023-05-13T08:09:51.175Z,96029
2023-05-13T08:10:51.104Z,96031
2023-05-13T08:11:51.200Z,96033
2023-05-13T08:12:51.229Z,96033
2023-05-13T08:13:51.103Z,96034
2023-05-13T08:14:51.186Z,96034
2023-05-13T08:15:51.198Z,96034
2023-05-13T08:16:51.198Z,96036
2023-05-13T08:17:51.209Z,96035
2023-05-13T08:18:51.299Z,96034
2023-05-13T08:19:51.128Z,96034
2023-05-13T08:20:51.134Z,96035
2023-05-13T08:21:51.090Z,96032
2023-05-13T08:23:51.202Z,96032
2023-05-13T08:24:51.089Z,96032
2023-05-13T08:25:51.140Z,96032
2023-05-13T08:27:51.303Z,96033
2023-05-13T08:28:54.495Z,96032
2023-05-13T08:29:51.150Z,96029
2023-05-13T08:30:51.141Z,96031
2023-05-13T08:31:51.164Z,96032
2023-05-13T08:33:51.234Z,96030
2023-05-13T08:34:51.135Z,96030
2023-05-13T08:35:51.147Z,96028
2023-05-13T08:36:51.173Z,96032
2023-05-13T08:37:51.115Z,96032
2023-05-13T08:38:51.409Z,96029
2023-05-13T08:39:51.180Z,96027
2023-05-13T08:40:51.210Z,96031
2023-05-13T08:41:51.195Z,96030
2023-05-13T08:42:51.123Z,96030
2023-05-13T08:43:51.172Z,96032
2023-05-13T08:44:51.149Z,96032
2023-05-13T08:46:51.172Z,96034
2023-05-13T08:47:51.201Z,96039
2023-05-13T08:48:51.178Z,96035
2023-05-13T08:49:51.244Z,96041
2023-05-13T08:51:51.206Z,96038
2023-05-13T08:52:51.223Z,96038
2023-05-13T08:53:51.242Z,96039
2023-05-13T08:54:51.226Z,96041
2023-05-13T08:55:51.207Z,96039
2023-05-13T08:56:51.261Z,96040
2023-05-13T08:57:51.234Z,96043
2023-05-13T08:58:51.238Z,96042
2023-05-13T08:59:51.215Z,96045
2023-05-13T09:00:51.183Z,96044
2023-05-13T09:02:51.269Z,96043
2023-05-13T09:04:51.314Z,96046
2023-05-13T09:06:51.230Z,96049
2023-05-13T09:07:51.266Z,96050
2023-05-13T09:08:51.241Z,96048
2023-05-13T09:09:51.236Z,96054
2023-05-13T09:12:51.248Z,96050
2023-05-13T09:13:51.265Z,96049
2023-05-13T09:14:51.310Z,96052
2023-05-13T09:15:51.319Z,96051
2023-05-13T09:16:51.225Z,96054
2023-05-13T09:17:51.318Z,96052
2023-05-13T09:18:51.447Z,96051
2023-05-13T09:19:51.414Z,96050
2023-05-13T09:20:51.293Z,96049
2023-05-13T09:21:51.261Z,96049
2023-05-13T09:22:51.282Z,96046
2023-05-13T09:23:51.295Z,96049
2023-05-13T09:24:51.284Z,96045
2023-05-13T09:25:51.330Z,96045
2023-05-13T09:26:51.316Z,96049
2023-05-13T09:27:51.307Z,96044
2023-05-13T09:28:51.334Z,96041
2023-05-13T09:29:51.278Z,96041
2023-05-13T09:30:51.380Z,96044
2023-05-13T09:31:51.312Z,96041
2023-05-13T09:32:51.344Z,96044
2023-05-13T09:33:51.303Z,96044
2023-05-13T09:34:51.256Z,96044
2023-05-13T09:35:51.286Z,96043
2023-05-13T09:36:51.399Z,96048
2023-05-13T09:37:51.297Z,96048
2023-05-13T09:38:51.314Z,96045
2023-05-13T09:39:51.351Z,96049
2023-05-13T09:40:51.317Z,96046
2023-05-13T09:41:51.367Z,96046
2023-05-13T09:42:51.321Z,96050
2023-05-13T09:43:51.326Z,96053
2023-05-13T09:44:51.342Z,96050
2023-05-13T09:46:51.401Z,96053
2023-05-13T09:47:51.343Z,96053
2023-05-13T09:48:51.370Z,96051
2023-05-13T09:49:51.341Z,96053
2023-05-13T09:50:51.398Z,96053
2023-05-13T09:51:51.338Z,96053
2023-05-13T09:53:51.374Z,96058
2023-05-13T09:54:51.345Z,96057
2023-05-13T09:55:51.350Z,96059
2023-05-13T09:56:51.381Z,96059
2023-05-13T09:57:51.401Z,96056
2023-05-13T09:58:51.391Z,96063
2023-05-13T09:59:51.385Z,96061
2023-05-13T10:00:51.421Z,96061
2023-05-13T10:01:51.493Z,96056
2023-05-13T10:02:51.395Z,96060
2023-05-13T10:03:51.392Z,96057
2023-05-13T10:04:51.370Z,96057
2023-05-13T10:05:51.458Z,96058
2023-05-13T10:06:51.383Z,96059
2023-05-13T10:07:51.417Z,96059
2023-05-13T10:08:51.367Z,96059
2023-05-13T10:09:51.410Z,96062
2023-05-13T10:10:51.440Z,96064
2023-05-13T10:11:51.450Z,96060
2023-05-13T10:12:51.448Z,96065
2023-05-13T10:13:51.385Z,96064
2023-05-13T10:14:51.418Z,96065
2023-05-13T10:15:51.385Z,96065
2023-05-13T10:16:51.429Z,96063
2023-05-13T10:17:51.481Z,96062
2023-05-13T10:18:51.475Z,96062
2023-05-13T10:19:51.418Z,96062
2023-05-13T10:20:51.422Z,96059
2023-05-13T10:21:51.372Z,96059
2023-05-13T10:22:51.459Z,96061
2023-05-13T10:23:51.481Z,96063
2023-05-13T10:24:51.467Z,96064
2023-05-13T10:25:51.458Z,96060
2023-05-13T10:26:51.424Z,96060
2023-05-13T10:27:51.412Z,96061
2023-05-13T10:28:51.459Z,96064
2023-05-13T10:29:51.409Z,96064
2023-05-13T10:30:51.639Z,96065
2023-05-13T10:31:51.484Z,96065
2023-05-13T10:32:51.519Z,96063
2023-05-13T10:33:51.492Z,96061
2023-05-13T10:34:51.447Z,96063
2023-05-13T10:35:51.464Z,96063
2023-05-13T10:36:51.489Z,96061
2023-05-13T10:37:51.502Z,96061
2023-05-13T10:38:51.490Z,96061
2023-05-13T10:39:51.477Z,96060
2023-05-13T10:40:51.511Z,96057
2023-05-13T10:41:51.501Z,96061
2023-05-13T10:42:51.450Z,96061
2023-05-13T10:44:51.498Z,96062
2023-05-13T10:45:51.585Z,96062
2023-05-13T10:47:51.642Z,96060
2023-05-13T10:48:51.514Z,96059
2023-05-13T10:49:51.505Z,96056
2023-05-13T10:50:51.585Z,96059
2023-05-13T10:51:51.534Z,96057
2023-05-13T10:52:51.508Z,96057
2023-05-13T10:53:51.527Z,96055
2023-05-13T10:54:51.532Z,96054
2023-05-13T10:55:51.463Z,96054
2023-05-13T10:56:51.530Z,96051
2023-05-13T10:57:51.508Z,96058
2023-05-13T10:58:51.543Z,96059
2023-05-13T10:59:51.489Z,96055
2023-05-13T11:00:51.509Z,96055
2023-05-13T11:01:51.545Z,96055
2023-05-13T11:02:51.588Z,96056
2023-05-13T11:03:51.612Z,96056
2023-05-13T11:04:51.561Z,96058
2023-05-13T11:05:51.493Z,96058
2023-05-13T11:06:51.551Z,96053
2023-05-13T11:07:51.581Z,96053
2023-05-13T11:08:53.089Z,96054
2023-05-13T11:09:51.517Z,96056
2023-05-13T11:10:51.622Z,96059
2023-05-13T11:11:51.532Z,96060
2023-05-13T11:12:51.575Z,96053
2023-05-13T11:13:51.517Z,96053
2023-05-13T11:14:51.588Z,96059
2023-05-13T11:16:51.582Z,96056
2023-05-13T11:17:51.587Z,96058
2023-05-13T11:18:51.741Z,96051
2023-05-13T11:19:51.584Z,96052
2023-05-13T11:20:55.048Z,96045
2023-05-13T11:21:51.523Z,96045
2023-05-13T11:22:51.574Z,96045
2023-05-13T11:23:51.628Z,96045
2023-05-13T11:24:51.586Z,96044
2023-05-13T11:25:51.580Z,96047
2023-05-13T11:26:51.553Z,96047
2023-05-13T11:27:51.595Z,96043
2023-05-13T11:28:51.601Z,96044
2023-05-13T11:29:51.604Z,96045
2023-05-13T11:30:51.578Z,96045
2023-05-13T11:31:51.880Z,96042
2023-05-13T11:32:51.836Z,96044
2023-05-13T11:33:51.610Z,96041
2023-05-13T11:34:51.599Z,96046
2023-05-13T11:35:51.706Z,96042
2023-05-13T11:36:51.631Z,96049
2023-05-13T11:37:51.630Z,96042
2023-05-13T11:38:51.623Z,96039
2023-05-13T11:39:51.589Z,96039
2023-05-13T11:40:51.637Z,96040
2023-05-13T11:41:51.687Z,96041
2023-05-13T11:42:51.620Z,96039
2023-05-13T11:43:51.628Z,96039
2023-05-13T11:45:51.704Z,96037
2023-05-13T11:46:51.644Z,96039
2023-05-13T11:47:51.619Z,96039
2023-05-13T11:48:51.686Z,96034
2023-05-13T11:49:51.659Z,96032
2023-05-13T11:50:51.673Z,96033
2023-05-13T11:51:51.655Z,96033
2023-05-13T11:52:51.623Z,96033
2023-05-13T11:53:51.691Z,96036
2023-05-13T11:54:51.688Z,96034
2023-05-13T11:55:51.729Z,96037
2023-05-13T11:56:51.682Z,96038
2023-05-13T11:57:51.680Z,96039
2023-05-13T11:58:51.660Z,96037
2023-05-13T11:59:51.710Z,96041
2023-05-13T12:00:51.632Z,96039
2023-05-13T12:01:51.720Z,96038
2023-05-13T12:02:51.855Z,96041
2023-05-13T12:03:51.732Z,96036
2023-05-13T12:04:51.799Z,96040
2023-05-13T12:05:51.676Z,96040
2023-05-13T12:06:51.723Z,96040
2023-05-13T12:07:51.662Z,96039
2023-05-13T12:09:51.768Z,96035
2023-05-13T12:10:51.701Z,96039
2023-05-13T12:11:51.741Z,96034
2023-05-13T12:12:51.743Z,96042
2023-05-13T12:13:51.663Z,96042
2023-05-13T12:14:51.728Z,96038
2023-05-13T12:15:51.771Z,96044
2023-05-13T12:16:51.716Z,96039
2023-05-13T12:17:51.817Z,96039
2023-05-13T12:18:51.743Z,96039
2023-05-13T12:19:51.754Z,96039
2023-05-13T12:20:51.790Z,96047
2023-05-13T12:21:51.720Z,96047
2023-05-13T12:22:51.748Z,96045
2023-05-13T12:23:51.739Z,96045
2023-05-13T12:24:51.744Z,96047
2023-05-13T12:25:51.770Z,96047
2023-05-13T12:26:51.729Z,96046
2023-05-13T12:27:51.720Z,96048
2023-05-13T12:28:51.745Z,96043
2023-05-13T12:29:51.801Z,96047
2023-05-13T12:30:51.841Z,96047
2023-05-13T12:31:51.930Z,96048
2023-05-13T12:33:51.775Z,96046
2023-05-13T12:34:51.784Z,96049
2023-05-13T12:35:51.827Z,96049
2023-05-13T12:36:51.763Z,96043
2023-05-13T12:37:51.826Z,96044
2023-05-13T12:39:51.767Z,96046
2023-05-13T12:40:51.779Z,96049
2023-05-13T12:41:51.811Z,96051
2023-05-13T12:42:51.778Z,96046
2023-05-13T12:43:51.796Z,96048
2023-05-13T12:44:51.781Z,96048
2023-05-13T12:45:51.796Z,96052
2023-05-13T12:46:51.877Z,96053
2023-05-13T12:48:51.808Z,96054
2023-05-13T12:49:51.762Z,96054
2023-05-13T12:51:51.867Z,96058
2023-05-13T12:52:51.758Z,96054
2023-05-13T12:53:51.838Z,96056
2023-05-13T12:54:51.837Z,96058
2023-05-13T12:55:51.847Z,96053
2023-05-13T12:56:51.842Z,96055
2023-05-13T12:57:51.827Z,96060
2023-05-13T12:58:51.822Z,96059
2023-05-13T12:59:51.841Z,96060
2023-05-13T13:00:51.848Z,96060
2023-05-13T13:01:51.804Z,96058
2023-05-13T13:02:51.961Z,96057
2023-05-13T13:03:51.971Z,96056
2023-05-13T13:04:51.898Z,96066
2023-05-13T13:05:51.835Z,96058
2023-05-13T13:06:51.871Z,96060
2023-05-13T13:07:51.885Z,96056
2023-05-13T13:08:51.866Z,96055
2023-05-13T13:09:51.878Z,96053
2023-05-13T13:10:51.853Z,96055
2023-05-13T13:11:51.892Z,96057
2023-05-13T13:12:51.874Z,96052
2023-05-13T13:13:51.868Z,96056
2023-05-13T13:14:51.874Z,96055
2023-05-13T13:15:51.923Z,96055
2023-05-13T13:16:51.928Z,96051
2023-05-13T13:17:51.957Z,96052
2023-05-13T13:18:53.431Z,96052
2023-05-13T13:19:51.882Z,96054
2023-05-13T13:20:51.882Z,96055
2023-05-13T13:21:51.867Z,96056
2023-05-13T13:22:51.921Z,96053
2023-05-13T13:23:51.886Z,96052
2023-05-13T13:24:51.897Z,96054
2023-05-13T13:25:51.928Z,96055
2023-05-13T13:26:51.901Z,96052
2023-05-13T13:27:51.887Z,96052
2023-05-13T13:28:51.932Z,96053
2023-05-13T13:29:51.937Z,96050
2023-05-13T13:30:51.934Z,96058
2023-05-13T13:31:51.920Z,96058
2023-05-13T13:32:51.963Z,96053
2023-05-13T13:33:51.924Z,96052
2023-05-13T13:34:51.940Z,96049
2023-05-13T13:35:51.961Z,96051
2023-05-13T13:36:51.893Z,96049
2023-05-13T13:37:51.938Z,96055
2023-05-13T13:38:51.945Z,96048
2023-05-13T13:39:53.327Z,96043
2023-05-13T13:40:51.951Z,96045
2023-05-13T13:41:52.015Z,96046
2023-05-13T13:42:51.923Z,96046
2023-05-13T13:43:51.999Z,96040
2023-05-13T13:44:51.925Z,96040
2023-05-13T13:45:52.009Z,96043
2023-05-13T13:46:51.978Z,96043
2023-05-13T13:47:52.048Z,96039
2023-05-13T13:48:51.918Z,96042
2023-05-13T13:49:51.917Z,96038
2023-05-13T13:50:52.900Z,96037
2023-05-13T13:51:51.960Z,96031
2023-05-13T13:52:51.955Z,96033
2023-05-13T13:53:52.001Z,96039
2023-05-13T13:54:52.008Z,96034
2023-05-13T13:56:52.007Z,96042
2023-05-13T13:58:52.034Z,96033
2023-05-13T13:59:52.030Z,96035
2023-05-13T14:00:51.963Z,96035
2023-05-13T14:01:52.036Z,96036
2023-05-13T14:02:52.114Z,96038
2023-05-13T14:03:52.177Z,96037
2023-05-13T14:04:51.993Z,96039
2023-05-13T14:05:51.984Z,96039
2023-05-13T14:06:52.038Z,96036
2023-05-13T14:07:52.032Z,96035
2023-05-13T14:08:52.022Z,96040
2023-05-13T14:09:52.062Z,96036
2023-05-13T14:10:51.993Z,96032
2023-05-13T14:11:52.034Z,96038
2023-05-13T14:12:52.017Z,96042
2023-05-13T14:13:52.016Z,96038
2023-05-13T14:15:52.125Z,96043
2023-05-13T14:16:52.047Z,96041
2023-05-13T14:17:52.067Z,96042
2023-05-13T14:18:52.075Z,96040
2023-05-13T14:19:52.021Z,96043
2023-05-13T14:20:52.033Z,96041
2023-05-13T14:21:52.060Z,96037
2023-05-13T14:22:52.254Z,96042
2023-05-13T14:23:52.015Z,96042
2023-05-13T14:25:52.047Z,96042
2023-05-13T14:26:52.060Z,96044
2023-05-13T14:27:52.054Z,96040
2023-05-13T14:28:52.093Z,96045
2023-05-13T14:29:52.099Z,96041
2023-05-13T14:30:52.110Z,96036
2023-05-13T14:31:52.162Z,96037
2023-05-13T14:32:52.138Z,96041
2023-05-13T14:33:52.117Z,96040
2023-05-13T14:34:52.097Z,96039
2023-05-13T14:35:52.096Z,96041
2023-05-13T14:36:52.097Z,96039
2023-05-13T14:37:52.125Z,96037
2023-05-13T14:38:52.075Z,96035
2023-05-13T14:39:52.075Z,96035